createdAt,value
2023-05-15T00:00:44.496Z,2.95
2023-05-15T00:03:12.206Z,8.98
2023-05-15T00:05:39.324Z,3.17
2023-05-15T00:08:06.219Z,3.03
2023-05-15T00:10:32.628Z,3.33
2023-05-15T00:12:59.138Z,3.25
2023-05-15T00:15:25.765Z,3.40
2023-05-15T00:17:52.548Z,2.88
2023-05-15T00:20:19.295Z,3.28
2023-05-15T00:22:45.808Z,2.97
2023-05-15T00:25:12.269Z,3.35
2023-05-15T00:27:38.713Z,3.00
2023-05-15T00:30:06.058Z,4.57
2023-05-15T00:32:32.511Z,3.00
2023-05-15T00:34:58.984Z,6.07
2023-05-15T00:37:25.554Z,3.58
2023-05-15T00:39:52.080Z,2.95
2023-05-15T00:42:18.955Z,5.05
2023-05-15T00:44:45.864Z,3.38
2023-05-15T00:47:12.568Z,3.25
2023-05-15T00:49:39.745Z,5.95
2023-05-15T00:52:08.704Z,2.80
2023-05-15T00:54:35.561Z,2.90
2023-05-15T00:57:02.629Z,2.75
2023-05-15T00:59:30.394Z,3.10
2023-05-15T01:01:56.899Z,3.40
2023-05-15T01:04:23.531Z,3.42
2023-05-15T01:07:05.995Z,3.25
2023-05-15T01:09:32.646Z,3.80
2023-05-15T01:11:59.651Z,3.20
2023-05-15T01:14:26.225Z,3.28
2023-05-15T01:16:52.882Z,3.33
2023-05-15T01:19:19.499Z,2.80
2023-05-15T01:21:51.799Z,5.72
2023-05-15T01:25:06.048Z,3.47
2023-05-15T01:27:52.822Z,5.40
2023-05-15T01:30:34.824Z,3.20
2023-05-15T01:33:28.882Z,3.80
2023-05-15T01:36:05.917Z,9.73
2023-05-15T01:38:39.440Z,3.28
2023-05-15T01:41:16.438Z,3.38
2023-05-15T01:43:46.281Z,3.30
2023-05-15T01:46:18.403Z,3.78
2023-05-15T01:48:45.671Z,5.35
2023-05-15T01:51:13.427Z,3.47
2023-05-15T01:53:40.750Z,3.63
2023-05-15T01:56:09.339Z,4.15
2023-05-15T01:58:38.487Z,3.17
2023-05-15T02:01:05.614Z,3.47
2023-05-15T02:03:34.494Z,4.88
2023-05-15T02:06:02.462Z,3.13
2023-05-15T02:08:29.946Z,3.40
2023-05-15T02:10:58.280Z,3.17
2023-05-15T02:13:25.417Z,3.70
2023-05-15T02:15:52.227Z,6.00
2023-05-15T02:18:19.042Z,4.45
2023-05-15T02:20:45.668Z,3.58
2023-05-15T02:23:12.117Z,4.07
2023-05-15T02:26:01.539Z,3.63
2023-05-15T02:28:32.577Z,3.60
2023-05-15T02:31:02.891Z,5.13
2023-05-15T02:33:40.749Z,4.03
2023-05-15T02:36:09.545Z,4.15
2023-05-15T02:38:41.522Z,3.92
2023-05-15T02:41:08.115Z,5.07
2023-05-15T02:43:36.374Z,4.00
2023-05-15T02:46:03.853Z,3.95
2023-05-15T02:48:30.253Z,3.92
2023-05-15T02:50:57.098Z,3.63
2023-05-15T02:53:23.585Z,3.30
2023-05-15T02:55:50.051Z,4.00
2023-05-15T02:58:16.513Z,4.53
2023-05-15T03:00:42.987Z,3.50
2023-05-15T03:03:09.428Z,3.40
2023-05-15T03:05:35.935Z,3.67
2023-05-15T03:08:02.345Z,4.43
2023-05-15T03:10:28.757Z,3.95
2023-05-15T03:12:58.378Z,3.75
2023-05-15T03:15:25.261Z,5.43
2023-05-15T03:17:52.056Z,3.42
2023-05-15T03:20:18.753Z,5.80
2023-05-15T03:22:45.191Z,3.80
2023-05-15T03:25:11.906Z,4.65
2023-05-15T03:27:38.425Z,5.53
2023-05-15T03:30:05.733Z,4.45
2023-05-15T03:32:32.275Z,3.78
2023-05-15T03:34:58.866Z,4.20
2023-05-15T03:37:25.327Z,4.10
2023-05-15T03:39:51.874Z,4.50
2023-05-15T03:42:23.621Z,3.97
2023-05-15T03:44:50.695Z,4.35
2023-05-15T03:47:17.493Z,8.30
2023-05-15T03:49:44.010Z,4.10
2023-05-15T03:52:10.533Z,4.22
2023-05-15T03:54:37.396Z,4.93
2023-05-15T03:57:04.728Z,4.07
2023-05-15T03:59:31.246Z,4.30
2023-05-15T04:04:28.956Z,4.30
2023-05-15T04:06:55.332Z,4.75
2023-05-15T04:09:21.750Z,4.72
2023-05-15T04:11:48.173Z,4.30
2023-05-15T04:14:14.540Z,4.57
2023-05-15T04:16:40.979Z,4.55
2023-05-15T04:19:07.486Z,8.35
2023-05-15T04:21:33.921Z,4.35
2023-05-15T04:24:00.347Z,7.70
2023-05-15T04:26:26.731Z,4.15
2023-05-15T04:29:03.434Z,5.55
2023-05-15T04:31:31.576Z,4.28
2023-05-15T04:33:58.285Z,8.02
2023-05-15T04:36:24.791Z,9.57
2023-05-15T04:38:51.636Z,5.30
2023-05-15T04:41:18.588Z,4.85
2023-05-15T04:43:45.045Z,4.40
2023-05-15T04:46:11.557Z,4.78
2023-05-15T04:48:38.082Z,5.38
2023-05-15T04:51:04.521Z,4.43
2023-05-15T04:53:30.937Z,4.95
2023-05-15T04:55:57.367Z,4.30
2023-05-15T04:58:23.712Z,5.10
2023-05-15T05:00:50.085Z,4.85
2023-05-15T05:03:16.533Z,3.88
2023-05-15T05:05:42.975Z,7.75
2023-05-15T05:08:09.395Z,5.20
2023-05-15T05:10:35.787Z,5.82
2023-05-15T05:13:02.254Z,6.68
2023-05-15T05:15:28.742Z,5.57
2023-05-15T05:17:55.234Z,5.47
2023-05-15T05:20:21.660Z,7.38
2023-05-15T05:22:48.010Z,6.40
2023-05-15T05:25:14.465Z,8.63
2023-05-15T05:27:40.867Z,9.13
2023-05-15T05:30:08.595Z,13.38
2023-05-15T05:32:35.109Z,17.30
2023-05-15T05:35:01.686Z,12.43
2023-05-15T05:37:28.074Z,11.43
2023-05-15T05:39:54.818Z,10.77
2023-05-15T05:42:21.285Z,11.30
2023-05-15T05:44:47.677Z,13.23
2023-05-15T05:47:14.295Z,11.25
2023-05-15T05:49:40.889Z,11.70
2023-05-15T05:52:08.236Z,11.30
2023-05-15T05:54:34.868Z,11.55
2023-05-15T05:57:01.229Z,11.38
2023-05-15T05:59:29.189Z,10.43
2023-05-15T06:01:55.689Z,9.88
2023-05-15T06:04:22.466Z,9.05
2023-05-15T06:06:50.060Z,9.82
2023-05-15T06:09:16.692Z,9.50
2023-05-15T06:11:43.094Z,9.65
2023-05-15T06:14:09.586Z,9.05
2023-05-15T06:16:36.049Z,8.88
2023-05-15T06:19:02.669Z,8.13
2023-05-15T06:21:29.177Z,7.85
2023-05-15T06:23:55.585Z,9.23
2023-05-15T06:26:23.574Z,7.78
2023-05-15T06:28:49.974Z,10.32
2023-05-15T06:31:17.242Z,7.78
2023-05-15T06:33:43.710Z,6.75
2023-05-15T06:36:10.250Z,6.25
2023-05-15T06:38:36.666Z,7.05
2023-05-15T06:41:06.220Z,5.82
2023-05-15T06:43:32.574Z,5.88
2023-05-15T06:45:59.235Z,7.35
2023-05-15T06:48:25.639Z,6.15
2023-05-15T06:50:52.620Z,6.93
2023-05-15T06:53:22.598Z,6.28
2023-05-15T06:55:49.032Z,6.75
2023-05-15T06:58:17.853Z,6.30
2023-05-15T07:00:44.316Z,7.10
2023-05-15T07:03:12.623Z,5.97
2023-05-15T07:05:39.169Z,6.50
2023-05-15T07:08:05.808Z,5.57
2023-05-15T07:10:32.203Z,5.80
2023-05-15T07:12:58.628Z,6.45
2023-05-15T07:15:25.093Z,5.78
2023-05-15T07:17:51.681Z,8.00
2023-05-15T07:20:18.120Z,5.93
2023-05-15T07:22:54.926Z,6.50
2023-05-15T07:25:23.950Z,5.38
2023-05-15T07:27:50.774Z,5.53
2023-05-15T07:30:17.269Z,7.78
2023-05-15T07:32:43.749Z,6.75
2023-05-15T07:35:11.534Z,5.32
2023-05-15T07:37:38.530Z,4.38
2023-05-15T07:40:06.200Z,4.28
2023-05-15T07:42:32.605Z,4.88
2023-05-15T07:44:59.007Z,4.25
2023-05-15T07:47:25.558Z,4.80
2023-05-15T07:49:51.954Z,4.10
2023-05-15T07:52:18.852Z,7.18
2023-05-15T07:54:45.212Z,5.10
2023-05-15T07:57:12.940Z,5.18
2023-05-15T07:59:39.355Z,4.57
2023-05-15T08:02:05.776Z,4.85
2023-05-15T08:04:33.685Z,5.10
2023-05-15T08:07:00.429Z,5.30
2023-05-15T08:09:26.836Z,6.03
2023-05-15T08:11:56.303Z,5.20
2023-05-15T08:14:22.839Z,5.13
2023-05-15T08:16:50.297Z,11.25
2023-05-15T08:19:16.985Z,5.60
2023-05-15T08:21:43.547Z,5.55
2023-05-15T08:24:09.920Z,6.22
2023-05-15T08:26:36.296Z,5.85
2023-05-15T08:29:02.779Z,7.72
2023-05-15T08:31:29.304Z,7.63
2023-05-15T08:33:55.730Z,6.35
2023-05-15T08:36:22.297Z,6.80
2023-05-15T08:38:48.735Z,9.82
2023-05-15T08:41:38.797Z,9.32
2023-05-15T08:44:06.742Z,6.47
2023-05-15T08:46:34.900Z,8.95
2023-05-15T08:49:05.125Z,10.85
2023-05-15T08:51:31.720Z,8.15
2023-05-15T08:53:58.519Z,7.55
2023-05-15T08:56:25.034Z,8.35
2023-05-15T08:58:51.679Z,12.07
2023-05-15T09:01:18.214Z,11.63
2023-05-15T09:03:44.811Z,8.77
2023-05-15T09:06:11.393Z,8.90
2023-05-15T09:08:38.669Z,9.18
2023-05-15T09:11:07.803Z,8.85
2023-05-15T09:13:34.374Z,7.82
2023-05-15T09:16:00.729Z,8.18
2023-05-15T09:18:27.689Z,11.10
2023-05-15T09:20:56.091Z,9.27
2023-05-15T09:23:25.809Z,8.90
2023-05-15T09:25:53.815Z,11.93
2023-05-15T09:28:28.385Z,12.18
2023-05-15T09:31:02.754Z,8.77
2023-05-15T09:33:35.619Z,11.20
2023-05-15T09:36:03.561Z,12.48
2023-05-15T09:38:32.741Z,11.38
2023-05-15T09:41:06.236Z,11.23
2023-05-15T09:43:39.843Z,12.43
2023-05-15T09:46:08.368Z,13.45
2023-05-15T09:48:35.312Z,13.18
2023-05-15T09:51:02.227Z,15.75
2023-05-15T09:53:29.074Z,12.73
2023-05-15T09:55:56.089Z,15.23
2023-05-15T09:58:23.371Z,13.45
2023-05-15T10:00:49.942Z,13.95
2023-05-15T10:03:23.910Z,15.77
2023-05-15T10:05:50.730Z,21.23
2023-05-15T10:08:27.069Z,15.40
2023-05-15T10:10:54.250Z,14.73
2023-05-15T10:13:21.675Z,16.08
2023-05-15T10:15:49.683Z,16.63
2023-05-15T10:18:18.823Z,17.73
2023-05-15T10:20:45.323Z,20.10
2023-05-15T10:23:12.856Z,15.70
2023-05-15T10:25:46.830Z,18.60
2023-05-15T10:28:14.155Z,15.82
2023-05-15T10:30:42.133Z,17.77
2023-05-15T10:33:09.665Z,14.30
2023-05-15T10:35:36.467Z,20.98
2023-05-15T10:38:04.856Z,19.30
2023-05-15T10:40:32.837Z,17.80
2023-05-15T10:43:00.584Z,17.10
2023-05-15T10:45:27.989Z,16.35
2023-05-15T10:47:54.640Z,17.17
2023-05-15T10:50:21.201Z,18.67
2023-05-15T10:52:51.012Z,19.48
2023-05-15T10:55:17.831Z,18.13
2023-05-15T10:57:47.618Z,17.88
2023-05-15T11:00:23.297Z,15.75
2023-05-15T11:02:53.537Z,17.45
2023-05-15T11:05:20.680Z,19.92
2023-05-15T11:08:25.691Z,17.38
2023-05-15T11:10:53.412Z,17.33
2023-05-15T11:13:20.118Z,17.48
2023-05-15T11:15:47.479Z,18.40
2023-05-15T11:18:14.173Z,16.58
2023-05-15T11:21:03.674Z,19.60
2023-05-15T11:23:38.245Z,16.85
2023-05-15T11:26:05.442Z,17.83
2023-05-15T11:28:41.587Z,18.77
2023-05-15T11:31:08.255Z,15.32
2023-05-15T11:33:34.680Z,17.95
2023-05-15T11:36:01.575Z,14.45
2023-05-15T11:38:28.318Z,13.43
2023-05-15T11:41:02.671Z,14.32
2023-05-15T11:43:33.171Z,15.85
2023-05-15T11:46:05.283Z,15.48
2023-05-15T11:48:35.972Z,14.68
2023-05-15T11:51:02.921Z,14.18
2023-05-15T11:53:30.200Z,13.32
2023-05-15T11:55:56.630Z,14.77
2023-05-15T11:58:24.276Z,12.25
2023-05-15T12:00:51.792Z,13.23
2023-05-15T12:03:27.139Z,14.77
2023-05-15T12:05:59.475Z,13.23
2023-05-15T12:08:33.792Z,13.38
2023-05-15T12:11:00.949Z,13.43
2023-05-15T12:13:27.429Z,12.52
2023-05-15T12:15:56.833Z,12.90
2023-05-15T12:18:23.572Z,13.70
2023-05-15T12:20:52.531Z,12.95
2023-05-15T12:23:21.222Z,13.52
2023-05-15T12:25:47.859Z,14.40
2023-05-15T12:28:14.630Z,12.90
2023-05-15T12:30:42.173Z,14.60
2023-05-15T12:33:09.990Z,11.50
2023-05-15T12:35:37.636Z,10.65
2023-05-15T12:38:04.945Z,10.07
2023-05-15T12:40:34.912Z,8.00
2023-05-15T12:43:06.113Z,10.63
2023-05-15T12:45:37.325Z,9.80
2023-05-15T12:48:04.165Z,8.88
2023-05-15T12:50:33.345Z,8.73
2023-05-15T12:53:04.063Z,8.48
2023-05-15T12:55:35.804Z,9.35
2023-05-15T12:58:07.242Z,9.70
2023-05-15T13:00:35.611Z,10.52
2023-05-15T13:03:02.542Z,11.00
2023-05-15T13:05:31.883Z,13.95
2023-05-15T13:07:59.360Z,13.13
2023-05-15T13:10:26.321Z,8.43
2023-05-15T13:12:53.703Z,4.20
2023-05-15T13:15:36.800Z,4.82
2023-05-15T13:18:06.230Z,8.07
2023-05-15T13:20:36.673Z,5.93
2023-05-15T13:23:03.388Z,6.53
2023-05-15T13:25:32.317Z,4.82
2023-05-15T13:28:00.544Z,5.53
2023-05-15T13:30:28.049Z,4.28
2023-05-15T13:32:55.818Z,4.45
2023-05-15T13:35:22.493Z,4.22
2023-05-15T13:37:49.394Z,3.63
2023-05-15T13:40:15.805Z,3.38
2023-05-15T13:42:43.196Z,3.10
2023-05-15T13:45:11.897Z,3.35
2023-05-15T13:47:39.557Z,3.45
2023-05-15T13:50:14.805Z,3.42
2023-05-15T13:52:42.704Z,3.00
2023-05-15T13:55:09.893Z,3.22
2023-05-15T13:57:41.026Z,7.45
2023-05-15T14:00:12.230Z,6.55
2023-05-15T14:02:43.097Z,3.65
2023-05-15T14:05:11.130Z,3.92
2023-05-15T14:07:37.674Z,5.18
2023-05-15T14:10:04.662Z,5.22
2023-05-15T14:12:31.026Z,5.70
2023-05-15T14:15:05.164Z,6.95
2023-05-15T14:17:31.695Z,6.38
2023-05-15T14:19:58.168Z,8.07
2023-05-15T14:22:25.073Z,8.88
2023-05-15T14:24:52.674Z,9.80
2023-05-15T14:27:19.503Z,9.35
2023-05-15T14:29:46.035Z,8.98
2023-05-15T14:32:12.659Z,8.82
2023-05-15T14:34:39.139Z,9.02
2023-05-15T14:37:05.669Z,8.48
2023-05-15T14:39:32.691Z,8.20
2023-05-15T14:41:59.085Z,8.77
2023-05-15T14:44:25.463Z,11.82
2023-05-15T14:47:08.634Z,9.25
2023-05-15T14:49:36.322Z,10.40
2023-05-15T14:52:03.490Z,10.38
2023-05-15T14:54:29.951Z,9.20
2023-05-15T14:56:57.525Z,9.93
2023-05-15T14:59:28.020Z,13.13
2023-05-15T15:01:54.596Z,13.38
2023-05-15T15:04:21.004Z,11.88
2023-05-15T15:06:48.073Z,11.80
2023-05-15T15:09:14.560Z,11.80
2023-05-15T15:11:41.070Z,12.68
2023-05-15T15:14:07.456Z,10.80
2023-05-15T15:16:34.017Z,11.35
2023-05-15T15:19:00.563Z,10.15
2023-05-15T15:21:27.082Z,13.05
2023-05-15T15:23:54.704Z,11.05
2023-05-15T15:26:21.670Z,10.60
2023-05-15T15:28:48.049Z,11.45
2023-05-15T15:31:15.317Z,10.90
2023-05-15T15:33:41.788Z,10.65
2023-05-15T15:36:08.269Z,12.68
2023-05-15T15:38:35.008Z,11.45
2023-05-15T15:41:04.788Z,13.13
2023-05-15T15:43:31.128Z,10.65
2023-05-15T15:45:57.560Z,12.68
2023-05-15T15:48:24.051Z,12.55
2023-05-15T15:50:52.012Z,10.82
2023-05-15T15:53:18.420Z,11.98
2023-05-15T15:55:46.971Z,10.95
2023-05-15T15:58:13.741Z,10.00
2023-05-15T16:00:41.149Z,11.40
2023-05-15T16:03:07.685Z,10.40
2023-05-15T16:05:34.160Z,9.43
2023-05-15T16:08:00.588Z,11.20
2023-05-15T16:10:26.992Z,9.07
2023-05-15T16:12:53.562Z,12.60
2023-05-15T16:15:23.780Z,10.75
2023-05-15T16:17:53.064Z,8.50
2023-05-15T16:20:20.234Z,7.65
2023-05-15T16:22:46.646Z,8.63
2023-05-15T16:25:13.037Z,7.40
2023-05-15T16:27:39.456Z,8.10
2023-05-15T16:30:06.289Z,7.03
2023-05-15T16:32:33.804Z,6.85
2023-05-15T16:35:00.489Z,6.45
2023-05-15T16:37:26.855Z,7.15
2023-05-15T16:39:53.297Z,9.43
2023-05-15T16:42:19.717Z,7.70
2023-05-15T16:44:46.152Z,8.05
2023-05-15T16:47:12.581Z,7.35
2023-05-15T16:49:38.958Z,7.65
2023-05-15T16:52:05.387Z,7.47
2023-05-15T16:54:31.742Z,8.10
2023-05-15T16:56:58.120Z,8.60
2023-05-15T16:59:24.453Z,8.45
2023-05-15T17:01:51.110Z,8.50
2023-05-15T17:04:17.719Z,8.68
2023-05-15T17:06:44.397Z,6.43
2023-05-15T17:09:10.898Z,6.95
2023-05-15T17:11:37.258Z,5.85
2023-05-15T17:14:03.748Z,6.10
2023-05-15T17:16:30.420Z,5.57
2023-05-15T17:18:57.008Z,6.25
2023-05-15T17:21:23.445Z,5.32
2023-05-15T17:23:52.176Z,4.43
2023-05-15T17:26:18.560Z,5.13
2023-05-15T17:28:44.952Z,5.18
2023-05-15T17:31:11.404Z,4.82
2023-05-15T17:33:37.887Z,4.57
2023-05-15T17:36:04.534Z,4.75
2023-05-15T17:38:30.925Z,5.63
2023-05-15T17:40:57.296Z,5.82
2023-05-15T17:43:23.712Z,5.57
2023-05-15T17:45:50.205Z,7.07
2023-05-15T17:48:16.634Z,5.40
2023-05-15T17:50:43.051Z,6.40
2023-05-15T17:53:09.416Z,6.07
2023-05-15T17:55:35.794Z,6.20
2023-05-15T17:58:02.240Z,4.90
2023-05-15T18:00:28.610Z,4.95
2023-05-15T18:02:55.088Z,6.40
2023-05-15T18:05:21.484Z,5.10
2023-05-15T18:07:48.235Z,7.72
2023-05-15T18:10:14.714Z,8.23
2023-05-15T18:12:41.099Z,7.15
2023-05-15T18:15:07.966Z,8.07
2023-05-15T18:17:34.350Z,6.60
2023-05-15T18:20:01.684Z,7.32
2023-05-15T18:22:28.143Z,5.68
2023-05-15T18:24:54.532Z,7.72
2023-05-15T18:27:20.972Z,6.25
2023-05-15T18:29:47.450Z,5.90
2023-05-15T18:32:13.953Z,6.65
2023-05-15T18:34:40.339Z,8.18
2023-05-15T18:37:06.813Z,6.45
2023-05-15T18:39:33.227Z,7.25
2023-05-15T18:42:00.248Z,5.20
2023-05-15T18:44:26.708Z,7.03
2023-05-15T18:46:53.123Z,12.75
2023-05-15T18:49:19.551Z,5.63
2023-05-15T18:51:46.167Z,6.43
2023-05-15T18:54:12.630Z,11.00
2023-05-15T18:56:40.546Z,7.10
2023-05-15T18:59:08.446Z,8.60
2023-05-15T19:01:34.907Z,7.55
2023-05-15T19:04:01.292Z,5.50
2023-05-15T19:06:27.686Z,6.10
2023-05-15T19:08:54.042Z,9.13
2023-05-15T19:11:21.246Z,7.22
2023-05-15T19:13:47.747Z,6.85
2023-05-15T19:16:14.141Z,6.70
2023-05-15T19:18:40.609Z,6.45
2023-05-15T19:21:07.144Z,5.88
2023-05-15T19:23:33.509Z,6.50
2023-05-15T19:25:59.980Z,11.70
2023-05-15T19:28:26.430Z,6.90
2023-05-15T19:30:52.795Z,7.00
2023-05-15T19:33:19.536Z,6.45
2023-05-15T19:35:46.092Z,8.18
2023-05-15T19:38:12.548Z,6.63
2023-05-15T19:40:39.014Z,7.72
2023-05-15T19:43:05.471Z,7.05
2023-05-15T19:45:31.876Z,7.05
2023-05-15T19:48:00.164Z,10.02
2023-05-15T19:50:26.848Z,8.70
2023-05-15T19:52:53.546Z,8.23
2023-05-15T19:55:20.007Z,10.38
2023-05-15T19:57:46.389Z,8.27
2023-05-15T20:00:13.395Z,11.18
2023-05-15T20:02:41.301Z,11.70
2023-05-15T20:05:08.261Z,10.02
2023-05-15T20:07:35.366Z,11.80
2023-05-15T20:10:01.772Z,11.75
2023-05-15T20:12:28.204Z,12.13
2023-05-15T20:14:54.564Z,13.15
2023-05-15T20:17:20.933Z,13.38
2023-05-15T20:19:49.308Z,17.50
2023-05-15T20:22:16.754Z,16.10
2023-05-15T20:24:43.182Z,14.00
2023-05-15T20:27:09.661Z,14.45
2023-05-15T20:29:36.017Z,16.55
2023-05-15T20:32:03.410Z,15.68
2023-05-15T20:34:30.347Z,15.93
2023-05-15T20:36:57.324Z,15.38
2023-05-15T20:39:23.928Z,18.95
2023-05-15T20:41:50.709Z,16.10
2023-05-15T20:44:17.121Z,18.58
2023-05-15T20:46:44.828Z,17.50
2023-05-15T20:49:11.817Z,17.88
2023-05-15T20:51:38.230Z,16.35
2023-05-15T20:54:04.688Z,15.48
2023-05-15T20:56:31.137Z,15.95
2023-05-15T20:58:59.948Z,20.02
2023-05-15T21:01:26.607Z,14.70
2023-05-15T21:03:53.085Z,15.77
2023-05-15T21:06:19.782Z,15.50
2023-05-15T21:08:46.166Z,16.00
2023-05-15T21:11:13.221Z,16.65
2023-05-15T21:13:39.704Z,16.65
2023-05-15T21:16:06.431Z,21.13
2023-05-15T21:18:32.960Z,15.85
2023-05-15T21:20:59.496Z,15.70
2023-05-15T21:23:27.911Z,16.95
2023-05-15T21:25:54.277Z,15.15
2023-05-15T21:28:20.615Z,13.40
2023-05-15T21:30:47.024Z,20.50
2023-05-15T21:33:13.381Z,19.60
2023-05-15T21:35:39.962Z,18.23
2023-05-15T21:38:06.761Z,19.92
2023-05-15T21:40:33.162Z,21.83
2023-05-15T21:42:59.578Z,23.52
2023-05-15T21:45:25.975Z,24.92
2023-05-15T21:47:53.220Z,23.02
2023-05-15T21:50:19.653Z,25.02
2023-05-15T21:52:46.214Z,25.27
2023-05-15T21:55:12.622Z,25.77
2023-05-15T21:57:39.034Z,26.77
2023-05-15T22:00:07.469Z,25.20
2023-05-15T22:02:34.583Z,25.48
2023-05-15T22:05:01.505Z,26.50
2023-05-15T22:07:27.904Z,24.08
2023-05-15T22:09:54.329Z,27.13
2023-05-15T22:12:21.011Z,25.38
2023-05-15T22:14:58.330Z,23.83
2023-05-15T22:17:27.105Z,26.13
2023-05-15T22:19:53.781Z,25.75
2023-05-15T22:22:20.760Z,28.30
2023-05-15T22:24:47.234Z,30.48
2023-05-15T22:27:16.373Z,25.80
2023-05-15T22:29:42.741Z,26.80
2023-05-15T22:32:09.211Z,28.67
2023-05-15T22:34:35.769Z,26.13
2023-05-15T22:37:02.155Z,27.35
2023-05-15T22:39:28.582Z,30.00
2023-05-15T22:41:54.929Z,26.95
2023-05-15T22:44:21.364Z,27.42
2023-05-15T22:46:47.942Z,30.15
2023-05-15T22:49:20.881Z,28.48
2023-05-15T22:51:47.353Z,28.42
2023-05-15T22:54:13.752Z,33.03
2023-05-15T22:56:40.171Z,30.70
2023-05-15T22:59:06.694Z,33.80
2023-05-15T23:01:33.106Z,29.20
2023-05-15T23:04:00.386Z,32.95
2023-05-15T23:06:26.754Z,33.88
2023-05-15T23:08:53.127Z,36.65
2023-05-15T23:11:20.338Z,32.80
2023-05-15T23:13:46.765Z,30.15
2023-05-15T23:16:13.175Z,36.67
2023-05-15T23:18:39.661Z,34.53
2023-05-15T23:21:06.069Z,38.08
2023-05-15T23:23:32.518Z,34.33
2023-05-15T23:26:00.914Z,37.45
2023-05-15T23:28:27.269Z,34.40
2023-05-15T23:30:54.214Z,33.45
2023-05-15T23:33:20.690Z,36.10
2023-05-15T23:35:47.132Z,36.83
2023-05-15T23:38:13.622Z,36.35
2023-05-15T23:40:40.025Z,32.67
2023-05-15T23:43:06.738Z,35.28
2023-05-15T23:45:33.143Z,35.17
2023-05-15T23:48:01.002Z,37.55
2023-05-15T23:50:28.013Z,35.03
2023-05-15T23:52:54.720Z,34.25
2023-05-15T23:55:21.135Z,34.15
2023-05-15T23:57:48.262Z,33.10
